• Join FlightAware (Why Join?)
  • Login
  • US Flag 
09:20PM EDT


 

Airport Tracker/Info


-or-


 

Live Flight TrackerFlight Track Log ✈ N662US ✈ 05-Jun-2013 ✈ ZSPD / PVG - RJAA / NRT

Flight Track Log - Related Links

Times and Time Zones

All times are in EDT time to prevent confusion due to time zone crossing. See the N662US flight status page for this flight to view local times or setup timezone preferences in your user account.

Time Position Orientation Groundspeed Altitude Reporting Facility
EDT Latitude Longitude Course Direction KTS MPH feet Rate Location/Type
09:11PM 31.1878 121.9255 68° East  Level Estimated
09:12PM 31.2327 122.0587 68° East  Level Estimated
09:13PM 31.2775 122.1920 69° East  Level Estimated
09:14PM 31.3221 122.3254 69° East  Level Estimated
09:15PM 31.3666 122.4590 69° East  Level Estimated
09:16PM 31.4109 122.5928 69° East  Level Estimated
09:17PM 31.4551 122.7266 69° East  Level Estimated
09:17PM 31.0990 121.8410 69° East 160 184 2,100  Level FlightAware
09:17PM 31.0860 121.8540 139° Southeast 160 184 2,400 1,740 Climbing FlightAware
09:18PM 31.0430 121.8900 144° Southeast 242 278 4,000 2,400 Climbing FlightAware
09:18PM 31.0140 121.9120 147° Southeast 254 292 5,400 2,880 Climbing FlightAware
09:19PM 30.9640 121.9680 136° Southeast 265 305 8,400 3,000 Climbing FlightAware
09:19PM 30.9630 121.9740 101° East 268 308 8,600 3,360 Climbing FlightAware
09:20PM 30.9670 122.0070 82° East 281 323 9,800 2,400 Climbing FlightAware
09:20PM 30.9790 122.0700 77° East 321 369 11,100 1,800 Climbing FlightAware
09:21PM 30.9900 122.1560 81° East 380 437 12,400 2,520 Climbing FlightAware
09:22PM 30.9990 122.2500 84° East 399 459 14,900 2,220 Climbing FlightAware
09:23PM 31.0010 122.3480 89° East 406 467 16,100 2,520 Climbing FlightAware
09:23PM 31.0000 122.4460 91° East 422 486 18,800 3,300 Climbing FlightAware
09:24PM 31.0000 122.5840 90° East 434 499 21,500 2,640 Climbing FlightAware
09:25PM 31.0000 122.6730 90° East 442 509 23,000 2,280 Climbing FlightAware
09:26PM 31.0000 122.7910 90° East 465 535 24,800 1,380 Climbing FlightAware
09:27PM 31.0000 122.8970 90° East 472 543 25,100 180 Climbing FlightAware
09:27PM 31.0090 122.9960 84° East 478 550 25,100  Level FlightAware
09:28PM 31.0590 123.0960 60° Northeast 488 562 25,100  Level FlightAware
09:29PM 31.1020 123.1680 55° Northeast 488 562 25,100  Level FlightAware
09:29PM 31.1530 123.2520 55° Northeast 488 562 25,100  Level FlightAware
09:30PM 31.2180 123.3600 55° Northeast 488 562 25,100 360 Level FlightAware
09:33PM 31.3194 123.6494 68° East  Level Estimated
09:34PM 31.3656 123.7822 68° East  Level Estimated
09:35PM 31.4116 123.9151 68° East  Level Estimated
09:36PM 31.4583 124.0502 68° East  Level Estimated
09:37PM 31.5048 124.1854 68° East  Level Estimated
09:38PM 31.5511 124.3208 68° East  Level Estimated
09:39PM 31.5973 124.4563 68° East  Level Estimated
09:40PM 31.6434 124.5919 68° East  Level Estimated
09:41PM 31.6893 124.7277 68° East  Level Estimated
09:42PM 31.7351 124.8635 68° East  Level Estimated
09:43PM 31.7808 124.9996 68° East  Level Estimated
09:44PM 31.8262 125.1357 69° East  Level Estimated
09:45PM 31.8716 125.2720 69° East  Level Estimated
09:46PM 31.9168 125.4084 69° East  Level Estimated
09:47PM 31.9618 125.5450 69° East  Level Estimated
09:48PM 32.0067 125.6817 69° East  Level Estimated
09:49PM 32.0515 125.8185 69° East  Level Estimated
09:50PM 32.0961 125.9555 69° East  Level Estimated
09:51PM 32.1406 126.0926 69° East  Level Estimated
09:52PM 32.1849 126.2298 69° East  Level Estimated
09:53PM 32.2291 126.3672 69° East  Level Estimated
09:54PM 32.2731 126.5047 69° East  Level Estimated
09:55PM 32.3170 126.6423 69° East  Level Estimated
09:56PM 32.3607 126.7801 69° East  Level Estimated
09:57PM 32.4043 126.9179 69° East  Level Estimated
09:58PM 32.4477 127.0560 70° East  Level Estimated
09:59PM 32.4910 127.1941 70° East  Level Estimated
10:00PM 32.5341 127.3324 70° East  Level Estimated
10:01PM 32.5770 127.4708 70° East  Level Estimated
10:02PM 32.6199 127.6094 70° East  Level Estimated
10:03PM 32.6625 127.7481 70° East  Level Estimated
10:04PM 32.7050 127.8869 70° East  Level Estimated
10:05PM 32.7474 128.0259 70° East  Level Estimated
10:06PM 32.7896 128.1650 70° East  Level Estimated
10:07PM 32.8317 128.3042 70° East  Level Estimated
10:08PM 32.8736 128.4435 70° East  Level Estimated
10:08PM 32.7410 129.2910 70° East 564 649 39,100  Level FlightAware
10:08PM 32.7700 129.4040 73° East 563 648 39,100  Level FlightAware
10:09PM 32.8040 129.5350 73° East 567 652 39,100  Level FlightAware
10:10PM 32.8290 129.6330 73° East 565 650 39,100  Level FlightAware
10:10PM 32.8590 129.7960 78° East 561 646 39,100  Level FlightAware
10:11PM 32.8630 129.8240 80° East 39,100  Level FlightAware
10:12PM 32.8990 130.0700 80° East 562 647 39,100  Level FlightAware
10:13PM 32.9170 130.1960 80° East 564 649 39,100  Level FlightAware
10:13PM 32.9370 130.3370 80° East 566 651 39,100  Level FlightAware
10:14PM 32.9540 130.4600 81° East 566 651 39,100  Level FlightAware
10:15PM 32.9710 130.5830 81° East 566 651 39,100  Level FlightAware
10:15PM 32.9890 130.7100 80° East 566 651 39,100  Level FlightAware
10:16PM 33.0070 130.8450 81° East 566 651 39,100  Level FlightAware
10:17PM 33.0240 130.9650 80° East 567 652 39,100  Level FlightAware
10:18PM 33.0430 131.1100 81° East 568 654 39,100  Level FlightAware
10:18PM 33.0590 131.2280 81° East 568 654 39,100  Level FlightAware
10:19PM 33.0750 131.3460 81° East 569 655 39,100  Level FlightAware
10:20PM 33.0920 131.4760 81° East 570 656 39,100  Level FlightAware
10:20PM 33.1120 131.6320 81° East 572 658 39,100  Level FlightAware
10:21PM 33.1270 131.7480 81° East 573 659 39,100  Level FlightAware
10:22PM 33.1460 131.8950 81° East 575 662 39,100  Level FlightAware
10:22PM 33.1620 132.0200 81° East 575 662 39,100  Level FlightAware
10:23PM 33.1800 132.1620 81° East 576 663 39,100  Level FlightAware
10:24PM 33.1960 132.2870 81° East 575 662 39,100  Level FlightAware
10:24PM 33.2110 132.4120 82° East 574 661 39,100  Level FlightAware
10:25PM 33.2230 132.5060 81° East 573 659 39,100  Level FlightAware
10:26PM 33.2400 132.6470 82° East 571 657 39,100  Level FlightAware
10:26PM 33.2550 132.7710 82° East 570 656 39,100  Level FlightAware
10:27PM 33.2700 132.8960 82° East 571 657 39,100  Level FlightAware
10:28PM 33.2860 133.0270 82° East 570 656 39,100  Level FlightAware
10:28PM 33.3010 133.1510 82° East 572 658 39,100  Level FlightAware
10:29PM 33.3150 133.2710 82° East 574 661 39,100  Level FlightAware
10:30PM 33.3360 133.4600 82° East 577 664 39,100  Level FlightAware
10:31PM 33.3560 133.6340 82° East 579 666 39,100  Level FlightAware
10:32PM 33.3730 133.7830 82° East 579 666 39,100  Level FlightAware
10:32PM 33.3870 133.9100 82° East 580 667 39,100  Level FlightAware
10:33PM 33.4020 134.0460 82° East 581 669 39,100  Level FlightAware
10:34PM 33.4160 134.1740 83° East 583 671 39,100  Level FlightAware
10:35PM 33.4310 134.3090 82° East 585 673 39,100  Level FlightAware
10:35PM 33.4460 134.4500 83° East 586 674 39,100  Level FlightAware
10:36PM 33.4600 134.5820 83° East 587 676 39,100  Level FlightAware
10:37PM 33.4730 134.7110 83° East 588 677 39,100  Level FlightAware
10:37PM 33.4880 134.8500 83° East 589 678 39,100  Level FlightAware
10:38PM 33.5020 134.9860 83° East 589 678 39,100  Level FlightAware
10:39PM 33.5170 135.1320 83° East 589 678 39,100  Level FlightAware
10:40PM 33.5310 135.2740 83° East 588 677 39,100  Level FlightAware
10:40PM 33.5430 135.3900 83° East 588 677 39,100  Level FlightAware
10:41PM 33.5530 135.4970 84° East 588 677 39,100  Level FlightAware
10:41PM 33.5680 135.6490 83° East 588 677 39,100  Level FlightAware
10:42PM 33.5800 135.7780 84° East 588 677 39,100  Level FlightAware
10:43PM 33.5940 135.9240 83° East 590 679 39,100  Level FlightAware
10:44PM 33.6060 136.0540 84° East 591 680 39,100  Level FlightAware
10:44PM 33.6190 136.1910 83° East 592 681 39,100  Level FlightAware
10:45PM 33.6320 136.3310 84° East 592 681 39,100  Level FlightAware
10:46PM 33.6440 136.4620 84° East 594 684 39,100  Level FlightAware
10:46PM 33.6560 136.6000 84° East 595 685 39,100  Level FlightAware
10:47PM 33.6680 136.7270 83° East 594 684 39,100  Level FlightAware
10:48PM 33.6810 136.8790 84° East 599 689 39,100  Level FlightAware
10:48PM 33.6920 137.0120 84° East 599 689 39,100  Level FlightAware
10:49PM 33.7100 137.1600 82° East 600 690 39,100  Level FlightAware
10:50PM 33.7300 137.2710 78° East 604 695 39,100  Level FlightAware
10:51PM 33.7770 137.4270 70° East 590 679 39,100  Level FlightAware
10:51PM 33.8240 137.5490 65° Northeast 592 681 39,100  Level FlightAware
10:52PM 33.8730 137.6850 67° East 590 679 39,100 60 Level FlightAware
10:53PM 33.9100 137.7940 68° East 589 678 39,200 720 Climbing FlightAware
10:53PM 33.9560 137.9260 67° East 579 666 40,100 1,020 Climbing FlightAware
10:54PM 34.0050 138.0630 67° East 578 665 40,800 660 Climbing FlightAware
10:55PM 34.0460 138.1760 66° East 582 670 41,100 180 Climbing FlightAware
10:55PM 34.0910 138.3010 66° East 582 670 41,100  Level FlightAware
10:56PM 34.1350 138.4260 67° East 578 665 41,100  Level FlightAware
10:57PM 34.1750 138.5420 67° East 576 663 41,100  Level FlightAware
10:58PM 34.2260 138.6870 67° East 570 656 41,100  Level FlightAware
10:58PM 34.2680 138.8070 67° East 568 654 41,100  Level FlightAware
10:59PM 34.3090 138.9220 67° East 569 655 41,100  Level FlightAware
11:00PM 34.3520 139.0490 68° East 569 655 41,100  Level FlightAware
11:01PM 34.4140 139.2290 67° East 569 655 41,100 -120 Level FlightAware
11:01PM 34.4550 139.3480 67° East 571 657 41,000 -900 Descending FlightAware
11:02PM 34.4950 139.4670 68° East 569 655 39,900 -2,580 Descending FlightAware
11:03PM 34.5360 139.5830 67° East 579 666 37,600 -3,660 Descending FlightAware
11:03PM 34.5820 139.7200 68° East 593 682 34,800 -3,600 Descending FlightAware
11:04PM 34.6250 139.8470 68° East 592 681 32,500 -3,120 Descending FlightAware
11:05PM 34.6670 139.9720 68° East 579 666 30,600 -2,640 Descending FlightAware
11:06PM 34.7120 140.1060 68° East 567 652 28,800 -2,520 Descending FlightAware
11:06PM 34.7510 140.2220 68° East 548 631 27,100 -3,000 Descending FlightAware
11:07PM 34.8070 140.3370 59° Northeast 516 594 24,600 -3,780 Descending FlightAware
11:08PM 34.8760 140.4160 43° Northeast 484 557 21,800 -4,080 Descending FlightAware
11:08PM 34.9490 140.4770 34° Northeast 472 543 19,100 -3,780 Descending FlightAware
11:09PM 35.0270 140.5440 35° Northeast 451 519 16,500 -2,760 Descending FlightAware
11:10PM 35.0940 140.6010 35° Northeast 421 484 15,300 -2,400 Descending FlightAware
11:10PM 35.1580 140.6560 35° Northeast 404 465 13,200 -2,340 Descending FlightAware
11:11PM 35.1880 140.6720 24° Northeast 397 457 12,400 -1,800 Descending FlightAware
11:12PM 35.3060 140.6900 North 370 426 10,800 -1,440 Descending FlightAware
11:12PM 35.3620 140.6960 North 368 423 10,400 -600 Descending FlightAware
11:13PM 35.4460 140.7030 North 345 397 10,000 -420 Descending FlightAware
11:14PM 35.4840 140.6950 350° North 317 365 9,900 -120 Descending FlightAware
11:14PM 35.5260 140.6800 344° North 293 337 9,900  Level FlightAware
11:15PM 35.5570 140.6690 344° North 290 334 9,900  Level FlightAware
11:15PM 35.5740 140.6620 341° North 288 331 9,900 -960 Level FlightAware
11:15PM 35.6060 140.6440 335° Northwest 285 328 9,300 -1,440 Descending FlightAware
11:16PM 35.6430 140.6220 334° Northwest 283 326 8,600 -1,380 Descending FlightAware
11:16PM 35.6610 140.6110 334° Northwest 281 323 8,300 -1,380 Descending FlightAware
11:16PM 35.6960 140.5900 334° Northwest 279 321 7,600 -1,440 Descending FlightAware
11:17PM 35.7240 140.5720 332° Northwest 277 319 7,000 -1,380 Descending FlightAware
11:17PM 35.7410 140.5620 334° Northwest 276 318 6,700 -1,320 Descending FlightAware
11:18PM 35.7690 140.5440 332° Northwest 273 314 6,100 -900 Descending FlightAware
11:18PM 35.8010 140.5230 332° Northwest 273 314 5,900 -240 Descending FlightAware
11:18PM 35.8320 140.5040 334° Northwest 272 313 5,900  Level FlightAware
11:19PM 35.8540 140.4910 334° Northwest 270 311 5,900  Level FlightAware
11:19PM 35.8800 140.4740 332° Northwest 252 290 5,900  Level FlightAware
11:20PM 35.9120 140.4550 334° Northwest 252 290 5,900 -600 Level FlightAware
11:20PM 35.9450 140.4160 316° Northwest 251 289 5,200 -1,320 Descending FlightAware
11:21PM 35.9620 140.3870 306° West 262 302 4,500 -1,800 Descending FlightAware
11:21PM 35.9740 140.3500 292° West 261 300 3,700 -1,440 Descending FlightAware
11:22PM 35.9720 140.3280 264° West 262 302 3,400 -900 Descending FlightAware
11:22PM 35.9650 140.3020 252° West 245 282 3,200 -600 Descending FlightAware
11:22PM 35.9540 140.2870 228° Southwest 233 268 3,100 -600 Descending FlightAware
11:22PM 35.9320 140.2740 206° Southwest 212 244 2,800 -360 Descending FlightAware
11:23PM 35.9120 140.2710 187° South 212 244 2,800 -480 Level FlightAware
11:23PM 35.8850 140.2890 152° Southeast 190 219 2,400 -840 Descending FlightAware
11:24PM 35.8660 140.3020 151° Southeast 173 199 2,100 -900 Descending FlightAware
11:25PM 35.8330 140.3260 149° Southeast 174 200 1,400 -960 Descending FlightAware
11:25PM 35.8170 140.3380 149° Southeast 164 189 1,000 -960 Descending FlightAware
11:26PM 35.7930 140.3550 150° Southeast 152 175 500 -900 Descending FlightAware